Enterline, Pennsylvania
Current Conditions -  °F | °C
As of 12:30 AM on Tuesday 27 Jan 2015 (Local Time) from KMUI Reporting Station
Overcast Overcast  
Wind Chill: 21°   Ceiling: 2300
Heat Index: 27°   Visibility: 10mi
Dew Point: 21°   Wind: 5mph
Humidity: 80%   Direction: 330°NNW
Pressure: 29.74"   Gusts: NA
Location:  40.4949°N, 76.8115°W
Report Text: KMUI 270530Z AUTO 33004KT 10SM BKN023 OVC030 M03/M06 A2974 RMK AO2 CIG 023V030 BKN V SCT
Loading
Personal Weather Stations






























Interactive Weather Map New forecast layout! Learn more

10-Day Weather Forecast

Advertisements
Track Severe Weather on mobile